createdAt,value
2018-09-13T00:00:28.788Z,99.90
2018-09-13T00:02:56.404Z,99.90
2018-09-13T00:05:23.970Z,99.90
2018-09-13T00:07:51.537Z,99.90
2018-09-13T00:10:19.152Z,99.90
2018-09-13T00:12:46.766Z,99.90
2018-09-13T00:15:14.333Z,99.90
2018-09-13T00:17:43.039Z,99.90
2018-09-13T00:20:10.620Z,99.90
2018-09-13T00:22:38.230Z,99.90
2018-09-13T00:25:05.916Z,99.90
2018-09-13T00:27:33.505Z,99.90
2018-09-13T00:30:02.049Z,99.90
2018-09-13T00:32:30.069Z,99.90
2018-09-13T00:34:57.647Z,99.90
2018-09-13T00:37:25.912Z,99.90
2018-09-13T00:39:53.605Z,99.90
2018-09-13T00:42:21.191Z,99.90
2018-09-13T00:44:48.852Z,99.90
2018-09-13T00:47:16.646Z,99.90
2018-09-13T00:49:44.240Z,99.90
2018-09-13T00:52:11.907Z,99.90
2018-09-13T00:54:39.468Z,99.90
2018-09-13T00:57:07.425Z,99.90
2018-09-13T00:59:35.236Z,99.90
2018-09-13T01:02:02.856Z,99.90
2018-09-13T01:04:30.425Z,99.90
2018-09-13T01:06:58.036Z,99.90
2018-09-13T01:09:25.625Z,99.90
2018-09-13T01:11:53.216Z,99.90
2018-09-13T01:14:20.982Z,99.90
2018-09-13T01:16:48.621Z,99.90
2018-09-13T01:19:16.220Z,99.90
2018-09-13T01:21:44.525Z,99.90
2018-09-13T01:24:12.090Z,99.90
2018-09-13T01:26:39.809Z,99.90
2018-09-13T01:29:08.412Z,99.90
2018-09-13T01:31:39.370Z,99.90
2018-09-13T01:34:06.958Z,99.90
2018-09-13T01:36:34.553Z,99.90
2018-09-13T01:39:02.640Z,99.90
2018-09-13T01:41:30.249Z,99.90
2018-09-13T01:43:57.833Z,99.90
2018-09-13T01:46:25.428Z,99.90
2018-09-13T01:48:53.017Z,99.90
2018-09-13T01:51:20.617Z,99.90
2018-09-13T01:53:48.184Z,99.90
2018-09-13T01:56:15.785Z,99.90
2018-09-13T01:58:43.357Z,99.90
2018-09-13T02:01:11.550Z,99.90
2018-09-13T02:03:40.119Z,99.90
2018-09-13T02:06:07.683Z,99.90
2018-09-13T02:08:35.276Z,99.90
2018-09-13T02:11:02.873Z,99.90
2018-09-13T02:13:30.436Z,99.90
2018-09-13T02:15:58.052Z,99.90
2018-09-13T02:18:25.660Z,99.90
2018-09-13T02:20:53.264Z,99.90
2018-09-13T02:23:20.862Z,99.90
2018-09-13T02:25:48.475Z,99.90
2018-09-13T02:28:16.049Z,99.90
2018-09-13T02:30:43.616Z,99.90
2018-09-13T02:33:11.955Z,99.90
2018-09-13T02:35:39.527Z,99.90
2018-09-13T02:38:07.157Z,99.90
2018-09-13T02:40:34.795Z,99.90
2018-09-13T02:43:03.166Z,99.90
2018-09-13T02:45:30.745Z,99.90
2018-09-13T02:47:58.330Z,99.90
2018-09-13T02:50:25.890Z,99.90
2018-09-13T02:52:53.497Z,99.90
2018-09-13T02:55:21.121Z,99.90
2018-09-13T02:57:48.752Z,99.90
2018-09-13T03:00:17.353Z,99.90
2018-09-13T03:02:44.937Z,99.90
2018-09-13T03:05:12.516Z,99.90
2018-09-13T03:07:40.193Z,99.90
2018-09-13T03:10:07.793Z,99.90
2018-09-13T03:12:35.393Z,99.90
2018-09-13T03:15:08.945Z,99.90
2018-09-13T03:17:37.281Z,99.90
2018-09-13T03:20:04.908Z,99.90
2018-09-13T03:22:32.501Z,99.90
2018-09-13T03:25:00.060Z,99.90
2018-09-13T03:27:27.705Z,99.90
2018-09-13T03:29:56.345Z,99.90
2018-09-13T03:32:23.960Z,99.90
2018-09-13T03:34:51.621Z,99.90
2018-09-13T03:37:19.381Z,99.90
2018-09-13T03:39:47.056Z,99.90
2018-09-13T03:42:15.921Z,99.90
2018-09-13T03:44:43.525Z,99.90
2018-09-13T03:47:11.141Z,99.90
2018-09-13T03:49:38.732Z,99.90
2018-09-13T03:52:06.380Z,99.90
2018-09-13T03:54:34.001Z,99.90
2018-09-13T03:57:01.589Z,99.90
2018-09-13T03:59:29.225Z,99.90
2018-09-13T04:01:56.832Z,99.90
2018-09-13T04:04:25.077Z,99.90
2018-09-13T04:06:52.789Z,99.90
2018-09-13T04:09:20.425Z,99.90
2018-09-13T04:11:48.029Z,99.90
2018-09-13T04:14:15.621Z,99.90
2018-09-13T04:16:43.223Z,99.90
2018-09-13T04:19:10.801Z,99.90
2018-09-13T04:21:38.412Z,99.90
2018-09-13T04:24:06.329Z,99.90
2018-09-13T04:26:33.901Z,99.90
2018-09-13T04:29:01.486Z,99.90
2018-09-13T04:31:29.081Z,99.90
2018-09-13T04:33:56.657Z,99.90
2018-09-13T04:36:24.345Z,99.90
2018-09-13T04:38:52.052Z,99.90
2018-09-13T04:41:20.569Z,99.90
2018-09-13T04:43:49.248Z,99.90
2018-09-13T04:46:16.840Z,99.90
2018-09-13T04:48:45.457Z,99.90
2018-09-13T04:51:13.681Z,99.90
2018-09-13T04:53:41.269Z,99.90
2018-09-13T04:56:08.936Z,99.90
2018-09-13T04:58:36.577Z,99.90
2018-09-13T05:01:04.349Z,99.90
2018-09-13T05:03:31.988Z,99.90
2018-09-13T05:05:59.555Z,99.90
2018-09-13T05:08:27.155Z,99.90
2018-09-13T05:10:55.778Z,99.90
2018-09-13T05:13:23.368Z,99.90
2018-09-13T05:15:51.012Z,99.90
2018-09-13T05:18:18.601Z,99.90
2018-09-13T05:20:47.249Z,99.90
2018-09-13T05:23:15.353Z,99.90
2018-09-13T05:25:42.976Z,99.90
2018-09-13T05:28:10.656Z,99.90
2018-09-13T05:30:38.248Z,99.90
2018-09-13T05:33:06.141Z,99.90
2018-09-13T05:35:33.705Z,99.90
2018-09-13T05:38:01.576Z,99.90
2018-09-13T05:40:29.886Z,99.90
2018-09-13T05:42:58.529Z,99.90
2018-09-13T05:45:26.572Z,99.90
2018-09-13T05:47:54.211Z,99.90
2018-09-13T05:50:22.584Z,99.90
2018-09-13T05:52:50.175Z,99.90
2018-09-13T05:55:17.786Z,99.90
2018-09-13T05:57:45.389Z,99.90
2018-09-13T06:00:13.053Z,99.90
2018-09-13T06:02:41.241Z,99.90
2018-09-13T06:05:08.853Z,99.90
2018-09-13T06:07:36.497Z,99.90
2018-09-13T06:10:04.212Z,99.90
2018-09-13T06:12:31.796Z,99.90
2018-09-13T06:14:59.397Z,99.90
2018-09-13T06:17:27.024Z,99.90
2018-09-13T06:19:54.621Z,99.90
2018-09-13T06:22:22.205Z,99.90
2018-09-13T06:24:49.800Z,99.90
2018-09-13T06:27:17.402Z,99.90
2018-09-13T06:29:44.989Z,99.90
2018-09-13T06:32:12.624Z,99.90
2018-09-13T06:34:40.233Z,99.90
2018-09-13T06:37:07.845Z,99.90
2018-09-13T06:39:35.621Z,99.90
2018-09-13T06:42:03.267Z,99.90
2018-09-13T06:44:30.845Z,99.90
2018-09-13T06:46:58.485Z,99.90
2018-09-13T06:49:26.151Z,99.90
2018-09-13T06:51:53.757Z,99.90
2018-09-13T06:54:21.352Z,99.90
2018-09-13T06:56:48.955Z,99.90
2018-09-13T06:59:17.337Z,99.90
2018-09-13T07:01:44.944Z,99.90
2018-09-13T07:04:12.548Z,99.90
2018-09-13T07:06:40.177Z,99.90
2018-09-13T07:09:10.388Z,99.90
2018-09-13T07:11:38.013Z,99.90
2018-09-13T07:14:05.616Z,99.90
2018-09-13T07:16:33.208Z,99.90
2018-09-13T07:19:00.773Z,99.90
2018-09-13T07:21:28.393Z,99.90
2018-09-13T07:23:55.968Z,99.90
2018-09-13T07:26:23.629Z,99.90
2018-09-13T07:28:51.216Z,99.90
2018-09-13T07:31:18.801Z,99.90
2018-09-13T07:33:46.405Z,99.90
2018-09-13T07:36:13.960Z,99.90
2018-09-13T07:38:41.523Z,99.90
2018-09-13T07:41:10.036Z,99.90
2018-09-13T07:43:37.637Z,99.90
2018-09-13T07:46:05.337Z,99.90
2018-09-13T07:48:33.624Z,99.90
2018-09-13T07:51:01.273Z,99.90
2018-09-13T07:53:29.864Z,99.90
2018-09-13T07:55:58.461Z,99.90
2018-09-13T07:58:26.136Z,99.90
2018-09-13T08:00:53.743Z,99.90
2018-09-13T08:03:21.293Z,99.90
2018-09-13T08:05:49.580Z,99.90
2018-09-13T08:08:17.181Z,99.90
2018-09-13T08:10:44.772Z,99.90
2018-09-13T08:13:12.396Z,99.90
2018-09-13T08:15:39.991Z,99.90
2018-09-13T08:18:07.637Z,99.90
2018-09-13T08:20:35.249Z,99.90
2018-09-13T08:23:02.824Z,99.90
2018-09-13T08:25:30.432Z,99.90
2018-09-13T08:27:58.012Z,99.90
2018-09-13T08:30:25.648Z,99.90
2018-09-13T08:32:53.231Z,99.90
2018-09-13T08:35:20.842Z,99.90
2018-09-13T08:37:48.424Z,99.90
2018-09-13T08:40:16.155Z,99.90
2018-09-13T08:42:43.675Z,99.90
2018-09-13T08:45:12.230Z,99.90
2018-09-13T08:47:39.921Z,99.90
2018-09-13T08:50:07.445Z,99.90
2018-09-13T08:52:35.061Z,99.90
2018-09-13T08:55:02.767Z,99.90
2018-09-13T08:57:30.334Z,99.90
2018-09-13T08:59:57.904Z,99.90
2018-09-13T09:02:25.508Z,99.90
2018-09-13T09:04:53.101Z,99.90
2018-09-13T09:07:20.713Z,99.90
2018-09-13T09:09:48.260Z,99.90
2018-09-13T09:12:15.858Z,99.90
2018-09-13T09:14:45.764Z,99.90
2018-09-13T09:17:13.496Z,99.90
2018-09-13T09:19:41.173Z,99.90
2018-09-13T09:22:08.749Z,99.90
2018-09-13T09:24:37.341Z,99.90
2018-09-13T09:27:05.005Z,99.90
2018-09-13T09:29:32.607Z,99.90
2018-09-13T09:32:00.382Z,99.90
2018-09-13T09:34:27.949Z,99.90
2018-09-13T09:36:55.541Z,99.90
2018-09-13T09:39:23.117Z,99.90
2018-09-13T09:41:50.696Z,99.90
2018-09-13T09:44:18.346Z,99.90
2018-09-13T09:46:45.913Z,99.90
2018-09-13T09:49:13.469Z,99.90
2018-09-13T09:51:41.061Z,99.90
2018-09-13T09:54:08.652Z,99.90
2018-09-13T09:56:36.257Z,99.90
2018-09-13T09:59:03.880Z,99.90
2018-09-13T10:01:32.485Z,99.90
2018-09-13T10:04:00.353Z,99.90
2018-09-13T10:06:27.904Z,99.90
2018-09-13T10:08:55.983Z,99.90
2018-09-13T10:11:23.734Z,99.90
2018-09-13T10:13:51.516Z,99.90
2018-09-13T10:16:24.703Z,99.90
2018-09-13T10:18:58.025Z,99.90
2018-09-13T10:21:31.289Z,99.90
2018-09-13T10:25:04.309Z,99.90
2018-09-13T10:27:37.493Z,99.90
2018-09-13T10:30:11.464Z,99.90
2018-09-13T10:32:44.721Z,99.90
2018-09-13T10:35:18.040Z,99.90
2018-09-13T10:37:51.244Z,99.90
2018-09-13T10:40:24.579Z,99.90
2018-09-13T10:42:57.873Z,99.90
2018-09-13T10:45:31.191Z,99.90
2018-09-13T10:48:04.627Z,99.90
2018-09-13T10:50:38.360Z,99.90
2018-09-13T10:53:11.485Z,99.90
2018-09-13T10:55:39.095Z,99.90
2018-09-13T10:58:06.708Z,99.90
2018-09-13T11:00:34.410Z,99.90
2018-09-13T11:03:02.008Z,99.90
2018-09-13T11:05:29.797Z,99.90
2018-09-13T11:07:58.373Z,99.90
2018-09-13T11:10:26.055Z,99.90
2018-09-13T11:12:59.224Z,99.90
2018-09-13T11:15:31.558Z,99.90
2018-09-13T11:17:59.125Z,99.90
2018-09-13T11:20:26.840Z,99.90
2018-09-13T11:22:54.773Z,99.90
2018-09-13T11:25:23.328Z,99.90
2018-09-13T11:27:50.889Z,99.90
2018-09-13T11:30:18.989Z,99.90
2018-09-13T11:32:46.608Z,99.90
2018-09-13T11:35:14.228Z,99.90
2018-09-13T11:37:41.833Z,99.90
2018-09-13T11:40:10.041Z,99.90
2018-09-13T11:42:37.642Z,99.90
2018-09-13T11:47:36.997Z,99.90
2018-09-13T11:50:05.031Z,99.90
2018-09-13T11:52:32.601Z,99.90
2018-09-13T11:55:00.204Z,99.90
2018-09-13T11:57:27.874Z,99.90
2018-09-13T11:59:55.469Z,99.90
2018-09-13T12:02:23.100Z,99.90
2018-09-13T12:04:50.664Z,99.90
2018-09-13T12:07:18.290Z,99.90
2018-09-13T12:09:45.880Z,99.90
2018-09-13T12:12:13.686Z,99.90
2018-09-13T12:14:41.237Z,99.90
2018-09-13T12:17:08.913Z,99.90
2018-09-13T12:19:37.333Z,99.20
2018-09-13T12:22:05.723Z,99.50
2018-09-13T12:24:33.356Z,98.90
2018-09-13T12:27:00.952Z,99.60
2018-09-13T12:29:28.552Z,97.10
2018-09-13T12:31:56.136Z,97.90
2018-09-13T12:34:23.799Z,97.20
2018-09-13T12:36:51.693Z,96.70
2018-09-13T12:39:19.844Z,98.10
2018-09-13T12:41:47.421Z,95.90
2018-09-13T12:44:17.139Z,96.50
2018-09-13T12:46:44.805Z,95.50
2018-09-13T12:49:12.428Z,94.80
2018-09-13T12:51:40.056Z,93.80
2018-09-13T12:54:07.633Z,91.80
2018-09-13T12:56:35.226Z,92.60
2018-09-13T12:59:02.841Z,92.90
2018-09-13T13:01:30.449Z,92.90
2018-09-13T13:03:58.036Z,94.30
2018-09-13T13:06:27.624Z,94.70
2018-09-13T13:08:55.251Z,93.70
2018-09-13T13:11:22.812Z,93.60
2018-09-13T13:13:50.414Z,93.40
2018-09-13T13:16:18.021Z,93.40
2018-09-13T13:18:45.644Z,95.10
2018-09-13T13:21:13.968Z,91.70
2018-09-13T13:23:41.728Z,92.90
2018-09-13T13:26:12.072Z,90.70
2018-09-13T13:28:39.673Z,86.30
2018-09-13T13:31:07.276Z,82.10
2018-09-13T13:33:34.917Z,83.00
2018-09-13T13:36:02.605Z,77.90
2018-09-13T13:38:30.218Z,77.10
2018-09-13T13:40:58.820Z,73.70
2018-09-13T13:43:26.385Z,73.30
2018-09-13T13:45:54.021Z,69.80
2018-09-13T13:48:45.197Z,68.00
2018-09-13T13:51:12.812Z,70.30
2018-09-13T13:53:40.414Z,70.60
2018-09-13T13:56:08.060Z,70.40
2018-09-13T13:58:36.705Z,68.80
2018-09-13T14:01:04.374Z,68.20
2018-09-13T14:03:31.944Z,65.30
2018-09-13T14:05:59.532Z,67.70
2018-09-13T14:08:28.192Z,63.90
2018-09-13T14:10:55.821Z,61.40
2018-09-13T14:13:23.451Z,59.90
2018-09-13T14:15:51.033Z,62.60
2018-09-13T14:18:18.676Z,60.30
2018-09-13T14:20:49.333Z,61.50
2018-09-13T14:23:17.492Z,59.20
2018-09-13T14:25:45.109Z,58.70
2018-09-13T14:28:12.942Z,60.40
2018-09-13T14:30:40.557Z,59.10
2018-09-13T14:33:08.129Z,59.50
2018-09-13T14:35:37.580Z,57.10
2018-09-13T14:38:05.236Z,57.90
2018-09-13T14:40:32.868Z,57.40
2018-09-13T14:43:00.450Z,57.00
2018-09-13T14:45:28.050Z,57.90
2018-09-13T14:47:55.829Z,56.30
2018-09-13T14:50:23.425Z,56.30
2018-09-13T14:52:50.985Z,58.20
2018-09-13T14:55:18.582Z,59.10
2018-09-13T14:57:46.809Z,60.50
2018-09-13T15:00:15.429Z,63.70
2018-09-13T15:02:43.777Z,65.80
2018-09-13T15:05:11.448Z,71.10
2018-09-13T15:07:39.014Z,72.80
2018-09-13T15:10:06.952Z,75.40
2018-09-13T15:12:35.083Z,77.60
2018-09-13T15:15:02.707Z,78.60
2018-09-13T15:17:30.292Z,81.10
2018-09-13T15:19:58.501Z,81.90
2018-09-13T15:22:26.053Z,83.10
2018-09-13T15:24:54.512Z,84.80
2018-09-13T15:27:22.121Z,84.70
2018-09-13T15:29:49.874Z,85.40
2018-09-13T15:32:19.038Z,88.10
2018-09-13T15:34:46.662Z,90.70
2018-09-13T15:37:14.233Z,90.90
2018-09-13T15:39:41.832Z,92.20
2018-09-13T15:42:09.449Z,92.30
2018-09-13T15:44:37.124Z,92.20
2018-09-13T15:47:04.764Z,92.40
2018-09-13T15:49:32.372Z,93.10
2018-09-13T15:51:59.940Z,94.20
2018-09-13T15:54:27.522Z,95.00
2018-09-13T15:56:55.126Z,96.10
2018-09-13T15:59:22.805Z,97.70
2018-09-13T16:01:50.446Z,99.00
2018-09-13T16:04:18.309Z,99.90
2018-09-13T16:06:45.880Z,99.90
2018-09-13T16:09:14.521Z,99.90
2018-09-13T16:11:42.133Z,99.90
2018-09-13T16:14:09.737Z,99.90
2018-09-13T16:16:38.165Z,99.90
2018-09-13T16:19:06.769Z,99.90
2018-09-13T16:21:34.392Z,99.90
2018-09-13T16:24:02.069Z,99.90
2018-09-13T16:26:29.714Z,99.90
2018-09-13T16:28:57.425Z,99.90
2018-09-13T16:31:25.773Z,99.90
2018-09-13T16:33:53.468Z,99.90
2018-09-13T16:36:29.966Z,99.90
2018-09-13T16:40:06.372Z,99.90
2018-09-13T16:42:48.360Z,99.90
2018-09-13T16:45:16.028Z,99.90
2018-09-13T16:47:49.357Z,99.90
2018-09-13T16:50:16.908Z,99.90
2018-09-13T16:52:44.485Z,99.90
2018-09-13T16:55:12.107Z,99.90
2018-09-13T16:57:40.725Z,99.90
2018-09-13T17:00:08.381Z,99.90
2018-09-13T17:02:36.001Z,99.90
2018-09-13T17:05:03.709Z,99.90
2018-09-13T17:07:32.149Z,99.90
2018-09-13T17:10:00.301Z,99.90
2018-09-13T17:12:27.869Z,99.90
2018-09-13T17:14:55.765Z,99.90
2018-09-13T17:17:24.141Z,99.90
2018-09-13T17:19:51.714Z,99.90
2018-09-13T17:22:19.324Z,99.90
2018-09-13T17:24:46.931Z,99.90
2018-09-13T17:27:14.534Z,99.90
2018-09-13T17:29:42.122Z,99.90
2018-09-13T17:32:09.714Z,99.90
2018-09-13T17:34:37.321Z,99.90
2018-09-13T17:37:05.475Z,99.90
2018-09-13T17:39:33.085Z,99.90
2018-09-13T17:42:00.745Z,99.90
2018-09-13T17:44:28.393Z,99.90
2018-09-13T17:46:56.004Z,99.90
2018-09-13T17:49:25.185Z,99.90
2018-09-13T17:51:53.829Z,99.90
2018-09-13T17:54:21.449Z,99.90
2018-09-13T17:56:49.022Z,99.90
2018-09-13T17:59:17.541Z,99.90
2018-09-13T18:01:49.091Z,99.90
2018-09-13T18:04:19.727Z,99.90
2018-09-13T18:06:47.307Z,99.90
2018-09-13T18:09:14.905Z,99.90
2018-09-13T18:11:42.508Z,99.90
2018-09-13T18:14:10.145Z,99.90
2018-09-13T18:16:37.729Z,99.90
2018-09-13T18:19:05.362Z,99.90
2018-09-13T18:21:32.970Z,99.90
2018-09-13T18:24:00.582Z,99.90
2018-09-13T18:26:28.201Z,99.90
2018-09-13T18:28:56.844Z,99.90
2018-09-13T18:31:24.517Z,99.90
2018-09-13T18:33:52.119Z,99.90
2018-09-13T18:36:20.810Z,99.90
2018-09-13T18:38:48.483Z,99.90
2018-09-13T18:41:16.124Z,99.90
2018-09-13T18:43:43.777Z,99.90
2018-09-13T18:46:26.980Z,99.90
2018-09-13T18:48:54.841Z,99.90
2018-09-13T18:51:22.580Z,99.90
2018-09-13T18:53:50.402Z,99.90
2018-09-13T18:56:17.968Z,99.90
2018-09-13T18:58:45.633Z,99.90
2018-09-13T19:01:13.719Z,99.90
2018-09-13T19:03:41.296Z,99.90
2018-09-13T19:06:09.000Z,99.90
2018-09-13T19:08:36.600Z,99.90
2018-09-13T19:11:04.342Z,99.90
2018-09-13T19:13:31.973Z,99.90
2018-09-13T19:16:01.257Z,99.90
2018-09-13T19:18:29.000Z,99.90
2018-09-13T19:20:56.581Z,99.90
2018-09-13T19:23:24.212Z,99.90
2018-09-13T19:25:51.800Z,99.90
2018-09-13T19:28:19.430Z,99.90
2018-09-13T19:30:47.006Z,99.90
2018-09-13T19:33:14.674Z,99.90
2018-09-13T19:35:42.284Z,99.90
2018-09-13T19:38:09.907Z,99.90
2018-09-13T19:40:38.277Z,99.90
2018-09-13T19:43:06.015Z,99.90
2018-09-13T19:45:33.588Z,99.90
2018-09-13T19:48:01.800Z,99.90
2018-09-13T19:50:29.457Z,99.90
2018-09-13T19:52:57.024Z,99.90
2018-09-13T19:55:27.127Z,99.90
2018-09-13T19:57:54.955Z,99.90
2018-09-13T20:00:22.605Z,99.90
2018-09-13T20:02:50.215Z,99.90
2018-09-13T20:05:17.805Z,99.90
2018-09-13T20:07:48.036Z,99.90
2018-09-13T20:10:15.880Z,99.90
2018-09-13T20:12:44.416Z,99.90
2018-09-13T20:15:12.049Z,99.90
2018-09-13T20:17:39.663Z,99.90
2018-09-13T20:20:07.268Z,99.90
2018-09-13T20:22:34.897Z,99.90
2018-09-13T20:25:02.553Z,99.90
2018-09-13T20:27:30.198Z,99.90
2018-09-13T20:29:57.929Z,99.90
2018-09-13T20:32:25.508Z,99.90
2018-09-13T20:34:53.188Z,99.90
2018-09-13T20:37:20.789Z,99.90
2018-09-13T20:39:48.524Z,99.90
2018-09-13T20:42:16.214Z,99.90
2018-09-13T20:44:43.867Z,99.90
2018-09-13T20:47:11.598Z,99.90
2018-09-13T20:49:39.179Z,99.90
2018-09-13T20:52:06.868Z,99.90
2018-09-13T20:54:34.446Z,99.90
2018-09-13T20:57:02.025Z,99.90
2018-09-13T20:59:29.813Z,99.90
2018-09-13T21:01:57.425Z,99.90
2018-09-13T21:04:25.067Z,99.90
2018-09-13T21:06:52.854Z,99.90
2018-09-13T21:09:20.453Z,99.90
2018-09-13T21:11:48.125Z,99.90
2018-09-13T21:14:15.721Z,99.90
2018-09-13T21:16:43.315Z,99.90
2018-09-13T21:19:11.584Z,99.90
2018-09-13T21:21:39.216Z,99.90
2018-09-13T21:24:07.388Z,99.90
2018-09-13T21:26:34.861Z,99.90
2018-09-13T21:29:02.466Z,99.90
2018-09-13T21:31:30.105Z,99.90
2018-09-13T21:33:57.694Z,99.90
2018-09-13T21:36:25.348Z,99.90
2018-09-13T21:38:52.982Z,99.90
2018-09-13T21:41:20.681Z,99.90
2018-09-13T21:43:48.290Z,99.90
2018-09-13T21:46:15.901Z,99.90
2018-09-13T21:48:43.493Z,99.90
2018-09-13T21:51:11.092Z,99.90
2018-09-13T21:53:38.761Z,99.90
2018-09-13T21:56:06.376Z,99.90
2018-09-13T21:58:33.983Z,99.90
2018-09-13T22:01:01.568Z,99.90
2018-09-13T22:03:29.528Z,99.90
2018-09-13T22:05:57.133Z,99.90
2018-09-13T22:08:24.737Z,99.90
2018-09-13T22:10:52.336Z,99.90
2018-09-13T22:13:19.950Z,99.90
2018-09-13T22:15:47.577Z,99.90
2018-09-13T22:18:15.293Z,99.90
2018-09-13T22:20:42.912Z,99.90
2018-09-13T22:23:11.156Z,99.90
2018-09-13T22:25:38.812Z,99.90
2018-09-13T22:28:06.424Z,99.90
2018-09-13T22:30:34.057Z,99.90
2018-09-13T22:33:01.659Z,99.90
2018-09-13T22:35:29.253Z,99.90
2018-09-13T22:37:57.428Z,99.90
2018-09-13T22:40:25.052Z,99.90
2018-09-13T22:42:52.626Z,99.90
2018-09-13T22:45:20.217Z,99.90
2018-09-13T22:47:47.801Z,99.90
2018-09-13T22:50:15.406Z,99.90
2018-09-13T22:52:44.049Z,99.90
2018-09-13T22:55:11.629Z,99.90
2018-09-13T22:57:39.287Z,99.90
2018-09-13T23:00:07.149Z,99.90
2018-09-13T23:02:40.272Z,99.90
2018-09-13T23:05:07.897Z,99.90
2018-09-13T23:07:35.490Z,99.90
2018-09-13T23:10:03.165Z,99.90
2018-09-13T23:12:30.733Z,99.90
2018-09-13T23:14:58.337Z,99.90
2018-09-13T23:17:26.076Z,99.90
2018-09-13T23:19:53.684Z,99.90
2018-09-13T23:22:21.289Z,99.90
2018-09-13T23:24:48.885Z,99.90
2018-09-13T23:27:16.497Z,99.90
2018-09-13T23:29:44.119Z,99.90
2018-09-13T23:32:11.713Z,99.90
2018-09-13T23:34:39.312Z,99.90
2018-09-13T23:37:06.920Z,99.90
2018-09-13T23:39:34.751Z,99.90
2018-09-13T23:42:02.178Z,99.90
2018-09-13T23:44:29.869Z,99.90
2018-09-13T23:46:57.472Z,99.90
2018-09-13T23:49:25.168Z,99.90
2018-09-13T23:51:52.771Z,99.90
2018-09-13T23:54:20.368Z,99.90
2018-09-13T23:56:49.354Z,99.90
2018-09-13T23:59:17.037Z,99.90
